Time;durP1;ratioP1;P1;durP2;ratioP2;P2;SDS_P1;SDS_P2;PMS_P1;PMS_P2;Temp;Humidity;BMP_temperature;BMP_pressure;BME280_temperature;BME280_humidity;BME280_pressure;Samples;Min_cycle;Max_cycle;Signal;HPM_P1;HPM_P2
2022/05/21 00:00:34;;;;;;;11.18;4.85;;;16.00;74.50;;;;;;5011026;28;20388;-76
2022/05/21 00:03:03;;;;;;;9.07;4.30;;;16.10;74.60;;;;;;5012392;28;20070;-75
2022/05/21 00:05:35;;;;;;;11.80;3.88;;;16.10;74.70;;;;;;5011949;28;20462;-75
2022/05/21 00:08:08;;;;;;;9.02;3.67;;;15.70;73.50;;;;;;5012255;28;20117;-74
2022/05/21 00:10:37;;;;;;;6.85;3.50;;;15.60;73.10;;;;;;5012030;28;20046;-75
2022/05/21 00:13:05;;;;;;;6.82;3.55;;;15.50;73.70;;;;;;5012072;28;20125;-74
2022/05/21 00:15:35;;;;;;;8.40;3.72;;;15.80;74.10;;;;;;5012392;28;20439;-74
2022/05/21 00:18:04;;;;;;;17.00;4.82;;;15.80;72.80;;;;;;5012148;28;20455;-74
2022/05/21 00:20:47;;;;;;;9.30;3.15;;;15.50;73.20;;;;;;5010730;28;20494;-75
2022/05/21 00:23:19;;;;;;;11.60;3.42;;;15.50;72.90;;;;;;5012148;28;20049;-74
2022/05/21 00:25:48;;;;;;;8.63;3.85;;;15.40;74.60;;;;;;5010603;28;20119;-75
2022/05/21 00:28:16;;;;;;;7.35;3.63;;;15.30;74.80;;;;;;5011773;28;20046;-74
2022/05/21 00:30:44;;;;;;;7.28;3.38;;;15.50;74.70;;;;;;5026939;28;20120;-76
2022/05/21 00:33:12;;;;;;;8.35;3.78;;;15.60;73.80;;;;;;5011996;28;20042;-75
2022/05/21 00:35:41;;;;;;;7.22;3.53;;;15.50;73.90;;;;;;5012093;28;20053;-75
2022/05/21 00:38:09;;;;;;;7.13;3.97;;;15.40;74.60;;;;;;5012036;28;20042;-75
2022/05/21 00:40:37;;;;;;;8.55;3.88;;;15.20;75.60;;;;;;5011429;28;20475;-77
2022/05/21 00:43:06;;;;;;;11.10;4.53;;;15.10;76.40;;;;;;5011983;28;20100;-76
2022/05/21 00:45:33;;;;;;;12.43;4.57;;;15.10;77.10;;;;;;5010635;28;20065;-78
2022/05/21 00:48:00;;;;;;;9.10;4.68;;;15.10;77.90;;;;;;5011633;28;20407;-77
2022/05/21 00:50:29;;;;;;;9.90;5.72;;;15.60;78.40;;;;;;5010557;28;20494;-77
2022/05/21 00:52:58;;;;;;;7.95;3.83;;;15.10;79.10;;;;;;5012129;28;20447;-77
2022/05/21 00:55:30;;;;;;;8.77;4.50;;;15.00;80.20;;;;;;5009695;28;20539;-75
2022/05/21 01:00:53;;;;;;;8.35;4.40;;;15.00;82.20;;;;;;5029707;28;20064;-78
2022/05/21 01:03:20;;;;;;;8.82;4.60;;;14.90;83.20;;;;;;5026431;28;20073;-77
2022/05/21 01:05:48;;;;;;;7.53;4.43;;;14.80;83.70;;;;;;5027285;28;20124;-76
2022/05/21 01:08:16;;;;;;;12.10;4.65;;;14.90;84.70;;;;;;5011625;28;20100;-77
2022/05/21 01:10:50;;;;;;;8.32;3.60;;;14.90;84.70;;;;;;5011615;28;20076;-78
2022/05/21 01:13:21;;;;;;;8.98;3.60;;;15.00;84.90;;;;;;5014056;28;20183;-78
2022/05/21 01:15:53;;;;;;;7.13;4.10;;;15.00;83.70;;;;;;4992019;28;20085;-78
2022/05/21 01:18:22;;;;;;;8.30;3.72;;;14.90;86.00;;;;;;4991931;28;20077;-78
2022/05/21 01:20:54;;;;;;;8.40;4.13;;;15.10;87.10;;;;;;4991693;28;20038;-77
2022/05/21 01:23:22;;;;;;;11.60;4.20;;;14.70;87.50;;;;;;4994454;28;20512;-75
2022/05/21 01:25:50;;;;;;;11.07;4.38;;;14.80;89.30;;;;;;4995658;28;20073;-77
2022/05/21 01:28:21;;;;;;;8.32;3.70;;;15.00;89.50;;;;;;4995583;28;20050;-76
2022/05/21 01:30:51;;;;;;;7.68;3.90;;;15.10;90.10;;;;;;4995839;28;20133;-77
2022/05/21 01:33:22;;;;;;;14.00;4.55;;;15.00;91.00;;;;;;4995727;28;20404;-77
2022/05/21 01:35:49;;;;;;;;;;;14.80;91.60;;;;;;4994745;28;20447;-77
2022/05/21 01:38:19;;;;;;;7.50;3.80;;;14.90;92.20;;;;;;4995374;28;19944;-77
2022/05/21 01:40:46;;;;;;;10.18;3.90;;;14.90;92.60;;;;;;4995416;28;20673;-75
2022/05/21 01:46:01;;;;;;;8.63;3.90;;;14.70;93.60;;;;;;4995441;28;20050;-77
2022/05/21 01:48:30;;;;;;;7.95;4.13;;;14.60;94.00;;;;;;4994969;28;20047;-74
2022/05/21 01:51:06;;;;;;;12.23;3.88;;;14.70;94.60;;;;;;4995089;28;20054;-77
2022/05/21 01:53:38;;;;;;;9.40;3.85;;;14.70;95.10;;;;;;4994158;28;20045;-76
2022/05/21 01:56:07;;;;;;;13.63;3.90;;;14.70;95.60;;;;;;4995318;28;20046;-77
2022/05/21 01:58:38;;;;;;;9.32;3.90;;;14.80;96.00;;;;;;4995155;28;20042;-75
2022/05/21 02:01:09;;;;;;;6.88;3.70;;;14.70;96.50;;;;;;4994810;28;20492;-76
2022/05/21 02:03:37;;;;;;;7.10;3.58;;;14.70;97.10;;;;;;4995042;28;20058;-75
2022/05/21 02:06:08;;;;;;;6.05;3.75;;;14.50;97.60;;;;;;4999191;28;20045;-76
2022/05/21 02:08:35;;;;;;;;;;;14.50;98.40;;;;;;5015139;28;20096;-76
2022/05/21 02:11:04;;;;;;;8.25;4.00;;;14.40;98.60;;;;;;5014447;28;19983;-75
2022/05/21 02:13:33;;;;;;;7.75;4.05;;;14.40;98.90;;;;;;5014353;28;20380;-74
2022/05/21 02:16:04;;;;;;;6.68;4.15;;;14.40;99.00;;;;;;4997544;28;20038;-75
2022/05/21 02:18:31;;;;;;;7.35;4.15;;;14.50;98.90;;;;;;5014405;28;20202;-76
2022/05/21 02:20:59;;;;;;;6.95;3.63;;;14.10;98.90;;;;;;5014107;28;20072;-74
2022/05/21 02:23:26;;;;;;;7.90;4.50;;;14.00;99.80;;;;;;5013305;28;20069;-76
2022/05/21 02:25:57;;;;;;;8.50;3.88;;;14.00;99.90;;;;;;5014176;28;20070;-77
2022/05/21 02:28:24;;;;;;;9.70;4.38;;;13.90;99.90;;;;;;5014234;28;20541;-76
2022/05/21 02:30:52;;;;;;;9.65;4.47;;;13.70;99.90;;;;;;5013857;28;20092;-76
2022/05/21 02:33:19;;;;;;;6.18;3.83;;;13.70;99.90;;;;;;5013976;28;20042;-75
2022/05/21 02:35:46;;;;;;;8.80;4.05;;;13.80;99.90;;;;;;5013719;28;20065;-75
2022/05/21 02:40:59;;;;;;;7.07;4.60;;;13.80;99.90;;;;;;5013954;28;20042;-75
2022/05/21 02:43:29;;;;;;;8.60;4.13;;;13.90;99.90;;;;;;5013472;28;20658;-75
2022/05/21 02:45:56;;;;;;;8.60;3.85;;;13.80;99.90;;;;;;5013653;28;20060;-77
2022/05/21 02:48:28;;;;;;;9.77;4.60;;;13.70;99.90;;;;;;5013745;28;20698;-77
2022/05/21 02:50:55;;;;;;;7.45;4.20;;;13.60;99.90;;;;;;5013859;28;20436;-76
2022/05/21 02:53:23;;;;;;;8.65;4.38;;;13.70;99.90;;;;;;5013501;28;20041;-75
2022/05/21 02:55:53;;;;;;;6.15;4.18;;;13.60;99.90;;;;;;5013630;28;20061;-74
2022/05/21 02:58:21;;;;;;;7.32;3.72;;;13.60;99.90;;;;;;5012295;28;20388;-75
2022/05/21 03:00:49;;;;;;;9.95;4.38;;;13.60;99.90;;;;;;5013605;28;20093;-76
2022/05/21 03:03:16;;;;;;;14.13;4.30;;;13.60;99.90;;;;;;5028510;28;20499;-74
2022/05/21 03:05:43;;;;;;;7.05;3.92;;;13.70;99.90;;;;;;5012059;28;20499;-77
2022/05/21 03:10:59;;;;;;;6.38;4.07;;;13.40;99.90;;;;;;4993694;28;20077;-75
2022/05/21 03:13:27;;;;;;;9.15;3.88;;;13.50;99.90;;;;;;4992261;28;20463;-76
2022/05/21 03:15:56;;;;;;;10.93;4.28;;;13.60;99.90;;;;;;5008926;28;20054;-76
2022/05/21 03:18:23;;;;;;;9.70;4.63;;;13.80;99.90;;;;;;4992287;28;20038;-76
2022/05/21 03:20:51;;;;;;;6.47;3.35;;;13.80;99.90;;;;;;5008826;28;20084;-76
2022/05/21 03:23:19;;;;;;;6.55;3.85;;;13.90;99.90;;;;;;5008691;28;20217;-76
2022/05/21 03:25:46;;;;;;;7.03;3.80;;;14.00;99.90;;;;;;4993236;28;20046;-74
2022/05/21 03:28:18;;;;;;;9.20;3.97;;;13.90;99.90;;;;;;4992126;28;20073;-77
2022/05/21 03:30:50;;;;;;;9.55;3.70;;;13.60;99.90;;;;;;4993417;28;20050;-78
2022/05/21 03:33:17;;;;;;;9.35;3.92;;;13.50;99.90;;;;;;5007986;28;20047;-77
2022/05/21 03:35:45;;;;;;;5.97;3.38;;;13.60;99.90;;;;;;5008672;28;20058;-78
2022/05/21 03:38:12;;;;;;;8.43;3.90;;;13.60;99.90;;;;;;4993215;28;20038;-76
2022/05/21 03:40:39;;;;;;;5.78;3.78;;;13.70;99.90;;;;;;4993154;28;20082;-75
2022/05/21 03:43:09;;;;;;;5.07;3.08;;;13.50;99.90;;;;;;4991746;28;20398;-75
2022/05/21 03:45:37;;;;;;;10.70;3.93;;;13.60;99.90;;;;;;4992269;28;20052;-77
2022/05/21 03:48:08;;;;;;;12.43;3.90;;;13.80;99.90;;;;;;4991643;28;20496;-76
2022/05/21 03:50:36;;;;;;;8.75;3.90;;;13.80;99.80;;;;;;4993192;28;20424;-76
2022/05/21 03:53:04;;;;;;;8.10;3.58;;;13.60;99.60;;;;;;4991624;28;20042;-76
2022/05/21 03:55:32;;;;;;;8.25;3.72;;;13.60;99.60;;;;;;4992984;28;20101;-75
2022/05/21 03:57:59;;;;;;;7.15;3.95;;;13.60;99.90;;;;;;5007543;28;20402;-76
2022/05/21 04:00:27;;;;;;;8.38;3.88;;;13.60;99.90;;;;;;4992897;28;20534;-75
2022/05/21 04:02:55;;;;;;;10.57;3.60;;;13.50;99.90;;;;;;4992461;28;20121;-78
2022/05/21 04:05:22;;;;;;;5.80;3.50;;;13.40;99.90;;;;;;4992791;28;20433;-76
2022/05/21 04:07:50;;;;;;;7.45;4.22;;;13.50;99.90;;;;;;5007299;28;20046;-77
2022/05/21 04:10:18;;;;;;;6.40;3.80;;;13.60;99.90;;;;;;5010994;28;20459;-75
2022/05/21 04:12:45;;;;;;;8.48;3.88;;;13.80;99.90;;;;;;5012043;28;20115;-75
2022/05/21 04:15:13;;;;;;;11.10;5.20;;;13.80;99.80;;;;;;5012128;28;20108;-74
2022/05/21 04:17:42;;;;;;;11.88;5.05;;;13.70;99.90;;;;;;4994874;28;20050;-76
2022/05/21 04:20:15;;;;;;;8.07;4.38;;;13.60;99.90;;;;;;5012176;28;20407;-77
2022/05/21 04:22:46;;;;;;;8.27;4.82;;;13.20;99.90;;;;;;5011936;28;20496;-75
2022/05/21 04:25:13;;;;;;;7.30;4.38;;;13.30;99.90;;;;;;5011423;28;20054;-77
2022/05/21 04:27:41;;;;;;;8.75;4.70;;;12.90;99.90;;;;;;5010356;28;20042;-76
2022/05/21 04:30:21;;;;;;;8.98;5.25;;;13.20;99.90;;;;;;5010967;28;20096;-76
2022/05/21 04:32:48;;;;;;;7.18;3.42;;;13.30;99.90;;;;;;5026690;28;20088;-77
2022/05/21 04:35:18;;;;;;;7.82;3.85;;;13.50;99.90;;;;;;5011933;28;20053;-77
2022/05/21 04:37:46;;;;;;;6.72;3.88;;;13.50;99.90;;;;;;5011895;28;20062;-77
2022/05/21 04:40:20;;;;;;;7.72;3.72;;;13.80;99.90;;;;;;5011890;28;20450;-77
2022/05/21 04:42:51;;;;;;;10.73;5.35;;;13.70;99.70;;;;;;5011406;28;20042;-75
2022/05/21 04:45:19;;;;;;;;;;;13.70;99.70;;;;;;5012255;28;20241;-76
2022/05/21 04:47:46;;;;;;;10.55;4.30;;;13.90;99.60;;;;;;5010754;28;20027;-77
2022/05/21 04:50:14;;;;;;;10.75;4.28;;;13.90;99.60;;;;;;5011999;28;20049;-77
2022/05/21 04:52:48;;;;;;;7.32;3.97;;;13.80;99.50;;;;;;5010213;28;20495;-77
2022/05/21 04:55:16;;;;;;;10.82;4.18;;;13.80;99.10;;;;;;5011870;28;20046;-75
2022/05/21 04:57:43;;;;;;;9.88;5.20;;;13.80;99.00;;;;;;5011244;28;20058;-76
2022/05/21 05:00:11;;;;;;;7.75;4.45;;;13.90;99.00;;;;;;5011628;28;20042;-77
2022/05/21 05:02:38;;;;;;;9.02;4.30;;;14.00;99.00;;;;;;5010160;28;20066;-76
2022/05/21 05:05:06;;;;;;;7.63;3.88;;;14.00;99.10;;;;;;5010431;28;20042;-77
2022/05/21 05:07:38;;;;;;;7.32;4.40;;;14.00;99.70;;;;;;5011785;28;20110;-77
2022/05/21 05:10:07;;;;;;;12.75;4.57;;;14.10;99.80;;;;;;5011446;28;20069;-76
2022/05/21 05:12:35;;;;;;;6.95;4.30;;;14.20;99.90;;;;;;5011433;28;20053;-77
2022/05/21 05:15:04;;;;;;;8.60;4.60;;;14.50;99.40;;;;;;5011298;28;20381;-77
2022/05/21 05:17:38;;;;;;;12.90;5.35;;;14.60;98.90;;;;;;5011753;28;20056;-78
2022/05/21 05:20:07;;;;;;;10.60;5.10;;;14.60;98.50;;;;;;5011369;28;20464;-77
2022/05/21 05:22:35;;;;;;;12.48;5.00;;;14.70;98.10;;;;;;5011491;28;20459;-77
2022/05/21 05:25:05;;;;;;;11.55;4.60;;;14.90;98.10;;;;;;5011283;28;20060;-77
2022/05/21 05:27:33;;;;;;;15.25;4.70;;;14.80;98.10;;;;;;5010009;28;20074;-77
2022/05/21 05:30:00;;;;;;;10.13;4.95;;;14.90;98.20;;;;;;5011318;28;20470;-74
2022/05/21 05:32:28;;;;;;;11.68;4.97;;;15.00;98.00;;;;;;5011283;28;20052;-76
2022/05/21 05:34:55;;;;;;;7.65;4.57;;;14.90;98.10;;;;;;5011378;28;20053;-75
2022/05/21 05:37:22;;;;;;;9.45;5.03;;;14.70;98.30;;;;;;5010975;28;20559;-76
2022/05/21 05:39:56;;;;;;;9.75;5.30;;;14.80;98.20;;;;;;5011293;28;20134;-77
2022/05/21 05:42:24;;;;;;;9.27;5.05;;;14.90;97.90;;;;;;5011477;28;20042;-77
2022/05/21 05:44:52;;;;;;;12.30;4.75;;;15.20;97.90;;;;;;5011151;28;20049;-77
2022/05/21 05:47:22;;;;;;;8.32;5.18;;;15.10;97.70;;;;;;5009945;28;20046;-76
2022/05/21 05:49:50;;;;;;;13.52;5.03;;;15.30;97.10;;;;;;5010967;28;20096;-77
2022/05/21 05:52:17;;;;;;;11.80;6.00;;;15.30;96.90;;;;;;5010519;28;20064;-77
2022/05/21 05:54:45;;;;;;;10.15;5.70;;;15.30;97.30;;;;;;5011366;28;20381;-75
2022/05/21 05:57:12;;;;;;;11.32;5.30;;;15.30;96.60;;;;;;5009817;28;20046;-77
2022/05/21 05:59:51;;;;;;;10.33;5.40;;;15.40;96.70;;;;;;5011253;28;20045;-76
2022/05/21 06:05:12;;;;;;;12.15;6.00;;;15.70;96.80;;;;;;5010933;28;20072;-77
2022/05/21 06:07:44;;;;;;;15.05;6.30;;;15.70;96.80;;;;;;5010949;28;20038;-76
2022/05/21 06:10:14;;;;;;;22.65;7.13;;;15.90;96.70;;;;;;5013241;28;20071;-75
2022/05/21 06:12:42;;;;;;;16.55;6.45;;;15.90;96.10;;;;;;5014412;28;20108;-77
2022/05/21 06:15:10;;;;;;;15.82;7.00;;;15.90;96.00;;;;;;5014468;28;20045;-75
2022/05/21 06:17:39;;;;;;;14.85;6.75;;;15.90;95.70;;;;;;5014598;28;20459;-77
2022/05/21 06:20:10;;;;;;;15.00;6.40;;;16.00;95.30;;;;;;5013312;28;20045;-77
2022/05/21 06:22:37;;;;;;;13.35;6.10;;;16.10;94.90;;;;;;5014162;28;20096;-77
2022/05/21 06:25:05;;;;;;;15.77;6.30;;;16.20;94.50;;;;;;5014207;28;20132;-74
2022/05/21 06:27:32;;;;;;;16.60;5.95;;;16.30;93.50;;;;;;5014310;28;20072;-76
2022/05/21 06:30:00;;;;;;;12.93;6.10;;;16.40;93.00;;;;;;5013864;28;20074;-77
2022/05/21 06:32:28;;;;;;;20.77;6.18;;;16.50;92.20;;;;;;4997526;28;20399;-78
2022/05/21 06:34:55;;;;;;;14.95;5.55;;;16.50;91.00;;;;;;5014182;28;20446;-79
2022/05/21 06:37:22;;;;;;;14.30;5.38;;;16.60;91.40;;;;;;5013895;28;20415;-76
2022/05/21 06:39:50;;;;;;;51.00;31.75;;;16.80;91.90;;;;;;5012893;28;20050;-78
2022/05/21 06:42:17;;;;;;;32.70;14.85;;;17.00;92.40;;;;;;5013831;28;20058;-77
2022/05/21 06:44:44;;;;;;;22.15;8.70;;;17.10;92.60;;;;;;5012627;28;20073;-76
2022/05/21 06:47:12;;;;;;;14.77;7.50;;;17.20;92.60;;;;;;5028647;28;20050;-78
2022/05/21 06:49:40;;;;;;;27.55;16.38;;;17.20;92.20;;;;;;5007905;28;20046;-78
2022/05/21 06:52:08;;;;;;;50.90;28.20;;;17.30;92.10;;;;;;5015750;28;20507;-77
2022/05/21 06:54:36;;;;;;;22.15;9.05;;;17.20;91.40;;;;;;5033634;28;20141;-77
2022/05/21 06:57:08;;;;;;;122.55;70.05;;;17.20;91.60;;;;;;5048530;28;20107;-79
2022/05/21 06:59:35;;;;;;;50.78;31.65;;;17.10;91.30;;;;;;5033592;28;20049;-76
2022/05/21 07:02:03;;;;;;;29.20;15.40;;;17.40;91.20;;;;;;5033695;28;20184;-78
2022/05/21 07:07:35;;;;;;;13.02;7.10;;;17.30;89.80;;;;;;5016981;28;20046;-77
2022/05/21 07:10:08;;;;;;;12.43;6.75;;;17.40;89.10;;;;;;5013050;28;20069;-76
2022/05/21 07:12:36;;;;;;;11.10;6.10;;;17.70;88.60;;;;;;5012506;28;20065;-78
2022/05/21 07:15:05;;;;;;;11.63;5.85;;;17.70;89.70;;;;;;5013371;28;20046;-79
2022/05/21 07:17:32;;;;;;;14.80;6.35;;;17.70;87.50;;;;;;4995928;28;20108;-75
2022/05/21 07:20:05;;;;;;;12.00;5.40;;;17.80;87.50;;;;;;5012019;28;20045;-78
2022/05/21 07:22:33;;;;;;;11.35;5.25;;;17.80;87.90;;;;;;5012944;28;20495;-78
2022/05/21 07:25:05;;;;;;;12.23;5.30;;;18.00;86.10;;;;;;5012913;28;20046;-79
2022/05/21 07:27:32;;;;;;;12.73;5.78;;;18.00;85.00;;;;;;5012974;28;20054;-78
2022/05/21 07:30:03;;;;;;;13.70;6.18;;;18.00;84.20;;;;;;5012831;28;20124;-78
2022/05/21 07:32:34;;;;;;;14.93;5.68;;;18.20;85.00;;;;;;5011790;28;20124;-78
2022/05/21 07:35:14;;;;;;;11.90;5.68;;;18.40;84.40;;;;;;5012920;28;20044;-78
2022/05/21 07:37:54;;;;;;;11.98;5.60;;;18.50;83.80;;;;;;5011975;28;20050;-77
2022/05/21 07:40:24;;;;;;;12.90;5.68;;;18.60;85.00;;;;;;5012819;28;20072;-79
2022/05/21 07:42:54;;;;;;;12.95;5.63;;;18.50;83.50;;;;;;5011474;28;20092;-78
2022/05/21 07:45:22;;;;;;;14.77;5.72;;;18.40;81.90;;;;;;5012942;28;20053;-79
2022/05/21 07:47:57;;;;;;;53.97;7.72;;;18.40;83.30;;;;;;4996802;28;20053;-77
2022/05/21 07:50:27;;;;;;;23.73;6.45;;;18.50;81.50;;;;;;5028489;28;20059;-74
2022/05/21 07:52:54;;;;;;;12.52;5.60;;;18.60;82.10;;;;;;5032653;28;20037;-78
2022/05/21 07:55:21;;;;;;;13.00;5.70;;;18.80;80.20;;;;;;5030691;28;20119;-76
2022/05/21 07:57:49;;;;;;;14.43;6.07;;;18.80;80.10;;;;;;5032277;28;20042;-77
2022/05/21 08:00:19;;;;;;;12.45;5.80;;;19.00;79.30;;;;;;5031979;28;20048;-77
2022/05/21 08:02:47;;;;;;;;;;;19.00;77.50;;;;;;5032332;28;20126;-76
2022/05/21 08:05:14;;;;;;;11.65;5.57;;;19.10;79.90;;;;;;5031921;28;19925;-79
2022/05/21 08:07:43;;;;;;;11.90;6.43;;;18.90;80.40;;;;;;5013211;28;20399;-76
2022/05/21 08:10:11;;;;;;;11.32;5.38;;;19.00;81.00;;;;;;4994953;28;20049;-77
2022/05/21 08:12:41;;;;;;;174.93;103.00;;;19.10;84.00;;;;;;5011122;28;20046;-78
2022/05/21 08:15:09;;;;;;;57.22;37.88;;;19.00;81.10;;;;;;5011115;28;20096;-80
2022/05/21 08:17:37;;;;;;;33.28;21.63;;;19.20;80.50;;;;;;5012430;28;20049;-79
2022/05/21 08:20:06;;;;;;;12.13;6.78;;;19.40;80.30;;;;;;5011657;28;20108;-74
2022/05/21 08:28:15;;;;;;;27.17;16.13;;;19.70;74.40;;;;;;5011936;28;20042;-73
2022/05/21 08:30:47;;;;;;;33.83;18.08;;;19.80;72.00;;;;;;5012126;28;20554;-78
2022/05/21 08:33:17;;;;;;;13.45;7.20;;;20.10;74.00;;;;;;5011040;28;20050;-82
2022/05/21 08:35:47;;;;;;;21.55;6.18;;;20.10;74.80;;;;;;5010738;28;20046;-80
2022/05/21 08:38:17;;;;;;;14.93;6.43;;;20.10;72.10;;;;;;5010702;28;20049;-76
2022/05/21 08:41:04;;;;;;;14.07;6.10;;;20.20;72.80;;;;;;5011863;28;20058;-77
2022/05/21 08:43:38;;;;;;;12.68;6.18;;;20.10;73.70;;;;;;5011680;28;20050;-80
2022/05/21 08:46:07;;;;;;;13.70;5.80;;;20.20;71.80;;;;;;5010624;28;20510;-84
2022/05/21 08:48:37;;;;;;;26.42;19.23;;;20.20;76.90;;;;;;5010485;28;20057;-78
2022/05/21 08:51:11;;;;;;;41.58;24.52;;;20.20;68.40;;;;;;5010794;28;20468;-84
2022/05/21 08:53:47;;;;;;;30.05;18.00;;;20.30;69.50;;;;;;5012135;28;20445;-79
2022/05/21 08:56:16;;;;;;;14.73;6.22;;;20.30;68.80;;;;;;5011526;28;20141;-86
2022/05/21 08:58:57;;;;;;;69.68;45.63;;;20.50;70.40;;;;;;5010686;28;20049;-85
2022/05/21 09:01:25;;;;;;;53.05;34.95;;;20.60;70.20;;;;;;5021659;28;20439;-83
2022/05/21 09:03:57;;;;;;;63.05;44.05;;;20.80;70.40;;;;;;5031776;28;20117;-81
2022/05/21 09:06:52;;;;;;;19.23;12.48;;;21.00;71.60;;;;;;5025270;28;20506;-85
2022/05/21 09:09:40;;;;;;;17.70;8.13;;;21.10;68.70;;;;;;5011498;28;20033;-79
2022/05/21 09:12:20;;;;;;;66.25;41.78;;;21.10;71.00;;;;;;5009700;28;20041;-82
2022/05/21 09:15:00;;;;;;;20.20;11.32;;;21.20;68.20;;;;;;5011042;28;20041;-81
2022/05/21 09:17:53;;;;;;;11.52;4.55;;;21.10;67.20;;;;;;5027712;28;20388;-87
2022/05/21 09:20:29;;;;;;;10.70;4.18;;;21.40;63.10;;;;;;5010264;28;20407;-81
2022/05/21 09:22:58;;;;;;;12.02;4.53;;;21.50;63.50;;;;;;5008789;28;20545;-80
2022/05/21 09:25:26;;;;;;;13.57;5.38;;;21.70;64.20;;;;;;5025200;28;20045;-80
2022/05/21 09:28:06;;;;;;;9.10;3.88;;;21.80;64.20;;;;;;5009884;28;20049;-78
2022/05/21 09:30:40;;;;;;;8.20;3.88;;;22.10;63.40;;;;;;5011124;28;20045;-80
2022/05/21 09:33:26;;;;;;;8.05;3.92;;;22.30;62.20;;;;;;5008772;28;20450;-80
2022/05/21 09:35:56;;;;;;;9.68;3.75;;;22.30;62.40;;;;;;5008837;28;20042;-79
2022/05/21 09:38:28;;;;;;;8.45;3.90;;;22.50;62.30;;;;;;5009496;28;20446;-78
2022/05/21 09:41:14;;;;;;;12.05;3.97;;;22.50;62.70;;;;;;5009919;28;20133;-78
2022/05/21 09:46:46;;;;;;;11.48;3.08;;;22.70;61.10;;;;;;5013323;28;20073;-80
2022/05/21 09:49:31;;;;;;;9.70;5.05;;;22.80;57.70;;;;;;5014311;28;20399;-81
2022/05/21 09:52:06;;;;;;;22.80;14.10;;;22.90;59.20;;;;;;5015718;28;20530;-85
2022/05/21 09:54:41;;;;;;;11.20;6.38;;;23.00;58.00;;;;;;5016259;28;20454;-88
2022/05/21 09:57:42;;;;;;;7.55;4.32;;;23.10;56.40;;;;;;5014118;28;20408;-87
2022/05/21 10:00:37;;;;;;;9.63;4.57;;;22.90;59.30;;;;;;5014900;28;20060;-82
2022/05/21 10:03:08;;;;;;;8.10;4.20;;;22.80;60.00;;;;;;5014691;28;20096;-87
2022/05/21 10:05:42;;;;;;;18.75;4.63;;;23.00;59.10;;;;;;5014828;28;20046;-88
2022/05/21 10:11:14;;;;;;;9.45;3.80;;;23.20;61.20;;;;;;5020188;28;20101;-84
2022/05/21 10:13:47;;;;;;;6.68;3.45;;;23.10;61.40;;;;;;5016561;28;20384;-84
2022/05/21 10:16:33;;;;;;;13.95;4.45;;;23.50;60.90;;;;;;5016202;28;20063;-79
2022/05/21 10:19:30;;;;;;;12.98;3.90;;;23.80;61.70;;;;;;5030099;28;20058;-76
2022/05/21 10:22:06;;;;;;;13.25;3.28;;;23.70;61.00;;;;;;5014752;28;20084;-78
2022/05/21 10:24:52;;;;;;;10.15;5.25;;;23.60;61.10;;;;;;5029751;28;20058;-82
2022/05/21 10:27:38;;;;;;;16.00;4.00;;;23.70;61.40;;;;;;5014235;28;20054;-81
2022/05/21 10:30:39;;;;;;;22.52;14.30;;;24.30;60.40;;;;;;5029997;28;20564;-84
2022/05/21 10:33:13;;;;;;;32.67;17.05;;;24.10;60.40;;;;;;5014318;28;20041;-78
2022/05/21 10:36:06;;;;;;;8.40;3.95;;;24.30;60.30;;;;;;5013160;28;20053;-76
2022/05/21 10:38:44;;;;;;;22.30;9.57;;;24.50;58.30;;;;;;5013032;28;20041;-80
2022/05/21 10:41:40;;;;;;;8.05;3.70;;;24.50;61.40;;;;;;5014387;28;20391;-82
2022/05/21 10:44:32;;;;;;;9.85;3.72;;;24.30;58.00;;;;;;5014363;28;20046;-86
2022/05/21 10:47:05;;;;;;;7.32;2.80;;;24.50;56.30;;;;;;5013699;28;20062;-78
2022/05/21 10:49:54;;;;;;;7.65;4.85;;;24.90;55.40;;;;;;5012598;28;20403;-80
2022/05/21 10:52:55;;;;;;;9.10;3.10;;;25.30;56.50;;;;;;5011810;28;20037;-76
2022/05/21 10:55:30;;;;;;;4.60;2.38;;;25.30;58.70;;;;;;5010495;28;20503;-82
2022/05/21 10:58:20;;;;;;;14.70;5.53;;;25.50;55.00;;;;;;5011012;28;20434;-77
2022/05/21 11:00:52;;;;;;;6.65;2.63;;;25.20;57.50;;;;;;5012593;28;20069;-76
2022/05/21 11:03:34;;;;;;;6.80;2.45;;;25.40;54.70;;;;;;5011814;28;20073;-75
2022/05/21 11:06:41;;;;;;;8.15;2.95;;;25.70;54.60;;;;;;5013420;28;20124;-86
2022/05/21 11:09:17;;;;;;;10.32;2.67;;;25.70;55.60;;;;;;4984251;28;20108;-82
2022/05/21 11:12:01;;;;;;;5.22;2.28;;;25.90;54.80;;;;;;4994310;28;20038;-82
2022/05/21 11:14:32;;;;;;;6.10;2.55;;;25.90;55.00;;;;;;5009337;28;20069;-81
2022/05/21 11:17:18;;;;;;;;;;;26.00;54.00;;;;;;4994556;28;20051;-85
2022/05/21 11:19:53;;;;;;;10.30;2.47;;;26.10;52.90;;;;;;4992548;28;20367;-77
2022/05/21 11:22:31;;;;;;;8.32;2.53;;;26.00;54.30;;;;;;4992373;28;20109;-81
2022/05/21 11:25:11;;;;;;;5.80;2.38;;;25.90;53.10;;;;;;5009449;28;20117;-81
2022/05/21 11:28:10;;;;;;;5.28;2.55;;;26.10;54.10;;;;;;4992084;28;20050;-79
2022/05/21 11:30:37;;;;;;;7.03;2.60;;;26.40;55.70;;;;;;4993887;28;20042;-81
2022/05/21 11:39:10;;;;;;;6.43;2.75;;;26.80;54.30;;;;;;4992114;28;20089;-77
2022/05/21 11:41:59;;;;;;;11.18;2.78;;;27.00;55.00;;;;;;4993309;28;20070;-82
2022/05/21 11:47:52;;;;;;;9.65;2.95;;;27.40;53.90;;;;;;4992612;28;20120;-80
2022/05/21 11:50:31;;;;;;;10.18;2.78;;;27.60;53.00;;;;;;4992473;28;20176;-82
2022/05/21 11:53:29;;;;;;;5.28;2.33;;;27.80;53.50;;;;;;5007961;28;20500;-82
2022/05/21 11:56:04;;;;;;;9.32;5.15;;;27.80;51.40;;;;;;5021943;28;20046;-79
2022/05/21 11:58:59;;;;;;;18.13;12.65;;;28.00;51.80;;;;;;5006307;28;20384;-78
2022/05/21 12:01:38;;;;;;;68.07;50.85;;;27.90;51.70;;;;;;5005042;28;20084;-77
2022/05/21 12:04:35;;;;;;;16.15;8.05;;;28.00;51.40;;;;;;5032046;28;20065;-78
2022/05/21 12:07:06;;;;;;;64.13;45.38;;;28.20;52.10;;;;;;5013550;28;20517;-79
2022/05/21 12:09:34;;;;;;;162.43;120.80;;;28.40;51.50;;;;;;5009669;28;20437;-79
2022/05/21 12:12:23;;;;;;;12.90;10.48;;;28.40;51.20;;;;;;5021930;28;20445;-79
2022/05/21 12:15:12;;;;;;;8.52;3.20;;;28.60;51.10;;;;;;5014053;28;20389;-77
2022/05/21 12:17:51;;;;;;;9.07;4.20;;;28.60;50.80;;;;;;5011435;28;20092;-85
2022/05/21 12:20:51;;;;;;;7.22;2.78;;;28.50;50.00;;;;;;5011207;28;20162;-78
2022/05/21 12:23:38;;;;;;;8.88;4.07;;;28.70;49.40;;;;;;5000445;28;20054;-77
2022/05/21 12:26:19;;;;;;;6.57;3.80;;;28.80;48.30;;;;;;5011736;28;20085;-80
2022/05/21 12:29:10;;;;;;;9.13;3.45;;;28.70;49.30;;;;;;5011888;28;20146;-83
2022/05/21 12:31:46;;;;;;;6.32;2.50;;;28.70;49.70;;;;;;5005096;28;20054;-88
2022/05/21 12:34:22;;;;;;;5.55;3.22;;;28.90;48.20;;;;;;5013081;28;20045;-83
2022/05/21 12:37:14;;;;;;;5.68;2.70;;;28.90;48.80;;;;;;5022367;28;20734;-82
2022/05/21 12:39:49;;;;;;;7.93;3.90;;;29.00;49.00;;;;;;5031500;28;20053;-75
2022/05/21 12:42:44;;;;;;;10.60;3.00;;;29.20;48.90;;;;;;5017913;28;20065;-81
2022/05/21 12:45:29;;;;;;;8.68;2.97;;;29.40;49.40;;;;;;5012122;28;20124;-78
2022/05/21 12:48:11;;;;;;;6.45;3.50;;;29.40;49.40;;;;;;5027047;28;20136;-82
2022/05/21 12:50:51;;;;;;;8.10;3.00;;;29.70;50.50;;;;;;5031832;28;20107;-80
2022/05/21 12:53:41;;;;;;;8.10;3.03;;;29.70;49.60;;;;;;5030698;28;20041;-78
2022/05/21 12:56:12;;;;;;;5.45;2.30;;;29.90;50.60;;;;;;5031842;28;20042;-84
2022/05/21 12:58:40;;;;;;;10.10;2.00;;;29.90;47.30;;;;;;5031520;28;20083;-75
2022/05/21 13:01:09;;;;;;;6.72;3.45;;;29.80;47.60;;;;;;5031826;28;20084;-77
2022/05/21 13:03:36;;;;;;;10.95;3.88;;;29.70;48.50;;;;;;5029980;28;20038;-85
2022/05/21 13:06:08;;;;;;;4.43;2.55;;;29.50;49.50;;;;;;5025639;28;20050;-75
2022/05/21 13:08:40;;;;;;;8.10;2.30;;;29.60;48.50;;;;;;5010191;28;20046;-87
2022/05/21 13:11:23;;;;;;;10.07;2.63;;;29.90;48.60;;;;;;5030553;28;20147;-85
2022/05/21 13:13:59;;;;;;;5.40;2.50;;;30.00;47.60;;;;;;5030536;28;20045;-81
2022/05/21 13:16:28;;;;;;;4.85;2.20;;;29.90;48.50;;;;;;5031976;28;20038;-82
2022/05/21 13:19:15;;;;;;;6.90;2.13;;;29.80;49.60;;;;;;5033420;28;20195;-76
2022/05/21 13:21:50;;;;;;;12.70;3.85;;;30.20;49.10;;;;;;5036016;28;20140;-83
2022/05/21 13:24:40;;;;;;;4.93;2.45;;;30.50;49.10;;;;;;5035863;28;20379;-88
2022/05/21 13:27:12;;;;;;;4.68;2.03;;;30.70;48.40;;;;;;5031465;28;20099;-77
2022/05/21 13:29:40;;;;;;;9.05;2.80;;;30.40;48.50;;;;;;5023605;28;20052;-79
2022/05/21 13:32:26;;;;;;;6.72;2.28;;;30.40;50.00;;;;;;5022694;28;20041;-74
2022/05/21 13:34:56;;;;;;;4.35;2.00;;;30.50;49.20;;;;;;5021320;28;20038;-79
2022/05/21 13:37:38;;;;;;;5.15;2.00;;;30.50;48.60;;;;;;5007318;28;20077;-78
2022/05/21 13:40:16;;;;;;;5.80;2.28;;;30.50;48.90;;;;;;5026193;28;20061;-82
2022/05/21 13:42:45;;;;;;;5.28;2.50;;;30.70;48.90;;;;;;5012690;28;20128;-82
2022/05/21 13:45:18;;;;;;;34.95;29.95;;;30.60;51.10;;;;;;5015115;28;20037;-79
2022/05/21 13:47:51;;;;;;;24.35;18.60;;;30.70;50.00;;;;;;5014997;28;20046;-82
2022/05/21 13:50:22;;;;;;;14.57;10.25;;;30.70;50.10;;;;;;5014037;28;20042;-81